createdAt,value
2018-04-17T00:02:03.760Z,12.65
2018-04-17T00:04:31.970Z,13.52
2018-04-17T00:07:00.101Z,13.75
2018-04-17T00:09:28.294Z,13.05
2018-04-17T00:11:56.430Z,13.10
2018-04-17T00:14:25.363Z,13.62
2018-04-17T00:16:53.495Z,13.38
2018-04-17T00:19:21.743Z,14.65
2018-04-17T00:21:49.907Z,14.43
2018-04-17T00:24:18.102Z,16.10
2018-04-17T00:26:46.277Z,15.60
2018-04-17T00:29:14.436Z,15.48
2018-04-17T00:31:42.621Z,14.77
2018-04-17T00:34:10.784Z,14.43
2018-04-17T00:36:38.986Z,14.35
2018-04-17T00:39:07.148Z,14.65
2018-04-17T00:41:35.330Z,14.65
2018-04-17T00:44:03.496Z,16.08
2018-04-17T00:46:31.668Z,16.08
2018-04-17T00:48:59.829Z,16.45
2018-04-17T00:51:28.019Z,14.70
2018-04-17T00:53:57.290Z,14.82
2018-04-17T00:56:25.482Z,16.10
2018-04-17T00:58:53.641Z,14.50
2018-04-17T01:01:21.804Z,14.10
2018-04-17T01:03:49.961Z,14.43
2018-04-17T01:06:18.235Z,15.55
2018-04-17T01:08:46.413Z,14.02
2018-04-17T01:11:14.567Z,16.42
2018-04-17T01:13:43.665Z,16.48
2018-04-17T01:16:12.577Z,16.98
2018-04-17T01:18:40.732Z,17.33
2018-04-17T01:21:09.625Z,18.33
2018-04-17T01:23:38.522Z,16.73
2018-04-17T01:26:07.480Z,16.62
2018-04-17T01:28:35.716Z,15.90
2018-04-17T01:31:03.856Z,17.48
2018-04-17T01:33:33.467Z,19.85
2018-04-17T01:36:02.373Z,18.20
2018-04-17T01:38:31.320Z,16.92
2018-04-17T01:40:59.479Z,18.45
2018-04-17T01:43:27.593Z,18.95
2018-04-17T01:45:55.755Z,20.88
2018-04-17T01:48:23.918Z,18.67
2018-04-17T01:50:52.077Z,19.05
2018-04-17T01:53:20.220Z,17.23
2018-04-17T01:55:48.346Z,18.37
2018-04-17T01:58:16.495Z,17.08
2018-04-17T02:00:45.402Z,18.23
2018-04-17T02:03:14.314Z,19.17
2018-04-17T02:05:42.495Z,19.23
2018-04-17T02:08:10.865Z,19.35
2018-04-17T02:10:39.013Z,19.30
2018-04-17T02:13:07.181Z,19.52
2018-04-17T02:15:35.352Z,19.83
2018-04-17T02:18:03.490Z,18.90
2018-04-17T02:20:31.669Z,17.83
2018-04-17T02:22:59.830Z,19.15
2018-04-17T02:25:28.839Z,18.83
2018-04-17T02:27:56.983Z,18.17
2018-04-17T02:30:25.889Z,16.95
2018-04-17T02:32:55.051Z,16.83
2018-04-17T02:35:23.212Z,16.52
2018-04-17T02:37:51.408Z,17.62
2018-04-17T02:40:19.596Z,16.00
2018-04-17T02:42:48.522Z,18.55
2018-04-17T02:45:17.606Z,16.67
2018-04-17T02:47:46.523Z,13.48
2018-04-17T02:50:15.423Z,14.27
2018-04-17T02:52:43.550Z,14.43
2018-04-17T02:55:11.757Z,14.07
2018-04-17T02:57:40.006Z,13.30
2018-04-17T03:00:08.135Z,12.70
2018-04-17T03:02:37.075Z,17.17
2018-04-17T03:05:05.208Z,16.30
2018-04-17T03:07:33.473Z,12.90
2018-04-17T03:10:01.716Z,13.85
2018-04-17T03:12:29.874Z,15.77
2018-04-17T03:14:58.012Z,15.30
2018-04-17T03:17:26.953Z,17.80
2018-04-17T03:19:55.110Z,16.65
2018-04-17T03:22:23.306Z,19.85
2018-04-17T03:24:51.470Z,17.83
2018-04-17T03:27:19.608Z,19.37
2018-04-17T03:29:48.549Z,17.10
2018-04-17T03:32:16.745Z,17.27
2018-04-17T03:34:45.691Z,17.10
2018-04-17T03:37:15.395Z,17.35
2018-04-17T03:39:43.566Z,17.15
2018-04-17T03:42:11.894Z,16.80
2018-04-17T03:44:40.069Z,16.33
2018-04-17T03:47:08.353Z,17.80
2018-04-17T03:49:36.483Z,19.60
2018-04-17T03:52:05.650Z,25.10
2018-04-17T03:54:34.008Z,22.05
2018-04-17T03:57:03.041Z,18.15
2018-04-17T03:59:31.194Z,17.98
2018-04-17T04:02:00.480Z,18.10
2018-04-17T04:04:28.637Z,18.20
2018-04-17T04:06:57.529Z,17.37
2018-04-17T04:09:26.413Z,19.25
2018-04-17T04:11:54.662Z,21.10
2018-04-17T04:14:22.783Z,18.83
2018-04-17T04:17:09.481Z,23.55
2018-04-17T04:19:56.063Z,24.55
2018-04-17T04:22:42.087Z,25.98
2018-04-17T04:25:29.069Z,24.33
2018-04-17T04:27:57.213Z,25.40
2018-04-17T04:30:25.461Z,20.95
2018-04-17T04:32:53.618Z,20.65
2018-04-17T04:35:22.500Z,22.17
2018-04-17T04:37:51.392Z,22.80
2018-04-17T04:40:20.300Z,22.95
2018-04-17T04:42:49.219Z,28.65
2018-04-17T04:45:17.494Z,21.70
2018-04-17T04:47:45.638Z,23.62
2018-04-17T04:50:13.836Z,25.62
2018-04-17T04:52:41.991Z,24.55
2018-04-17T04:55:10.123Z,24.52
2018-04-17T04:57:38.318Z,25.02
2018-04-17T05:00:06.422Z,24.92
2018-04-17T05:02:34.591Z,22.62
2018-04-17T05:05:03.593Z,25.45
2018-04-17T05:07:31.737Z,24.42
2018-04-17T05:09:59.845Z,26.45
2018-04-17T05:12:28.076Z,24.52
2018-04-17T05:14:56.275Z,26.35
2018-04-17T05:17:24.441Z,23.73
2018-04-17T05:19:52.575Z,24.05
2018-04-17T05:22:20.802Z,22.75
2018-04-17T05:24:48.987Z,22.10
2018-04-17T05:27:17.135Z,22.40
2018-04-17T05:29:45.300Z,25.00
2018-04-17T05:32:14.195Z,23.02
2018-04-17T05:34:43.089Z,23.25
2018-04-17T05:37:12.078Z,23.23
2018-04-17T05:39:40.968Z,23.75
2018-04-17T05:42:09.868Z,23.20
2018-04-17T05:44:38.783Z,21.55
2018-04-17T05:47:06.946Z,22.25
2018-04-17T05:49:35.074Z,23.30
2018-04-17T05:52:03.934Z,24.02
2018-04-17T05:54:32.846Z,22.95
2018-04-17T05:57:00.996Z,22.35
2018-04-17T05:59:29.202Z,24.48
2018-04-17T06:01:57.335Z,25.42
2018-04-17T06:04:26.318Z,21.80
2018-04-17T06:06:54.443Z,23.25
2018-04-17T06:09:23.316Z,22.67
2018-04-17T06:11:51.451Z,26.52
2018-04-17T06:14:20.285Z,25.50
2018-04-17T06:16:49.303Z,24.73
2018-04-17T06:19:18.259Z,22.23
2018-04-17T06:21:46.423Z,23.38
2018-04-17T06:24:14.706Z,20.65
2018-04-17T06:26:42.835Z,23.30
2018-04-17T06:29:11.030Z,21.02
2018-04-17T06:31:39.148Z,20.05
2018-04-17T06:34:07.350Z,19.52
2018-04-17T06:36:35.670Z,18.35
2018-04-17T06:39:03.817Z,22.05
2018-04-17T06:41:32.697Z,17.27
2018-04-17T06:44:00.813Z,18.92
2018-04-17T06:46:29.033Z,19.08
2018-04-17T06:48:57.166Z,19.05
2018-04-17T06:51:25.360Z,18.23
2018-04-17T06:53:53.596Z,20.48
2018-04-17T06:56:21.756Z,18.20
2018-04-17T06:58:49.895Z,18.50
2018-04-17T07:01:18.268Z,20.50
2018-04-17T07:03:46.394Z,21.58
2018-04-17T07:06:14.502Z,22.15
2018-04-17T07:08:43.417Z,19.65
2018-04-17T07:11:11.663Z,22.52
2018-04-17T07:13:39.794Z,22.83
2018-04-17T07:16:07.974Z,18.62
2018-04-17T07:18:36.094Z,21.98
2018-04-17T07:21:04.282Z,19.17
2018-04-17T07:23:33.207Z,20.23
2018-04-17T07:26:01.326Z,19.00
2018-04-17T07:28:29.546Z,20.20
2018-04-17T07:30:57.692Z,21.87
2018-04-17T07:33:25.819Z,23.23
2018-04-17T07:35:54.669Z,20.62
2018-04-17T07:38:22.789Z,20.25
2018-04-17T07:40:50.977Z,24.02
2018-04-17T07:43:19.102Z,20.70
2018-04-17T07:45:48.744Z,17.80
2018-04-17T07:48:35.567Z,19.90
2018-04-17T07:51:03.743Z,21.62
2018-04-17T07:53:31.876Z,19.00
2018-04-17T07:56:00.077Z,19.08
2018-04-17T07:58:28.997Z,20.55
2018-04-17T08:00:57.238Z,19.52
2018-04-17T08:03:26.168Z,20.80
2018-04-17T08:05:54.303Z,20.35
2018-04-17T08:08:23.199Z,20.73
2018-04-17T08:10:51.341Z,20.80
2018-04-17T08:13:19.495Z,18.70
2018-04-17T08:15:47.649Z,21.60
2018-04-17T08:18:16.548Z,20.52
2018-04-17T08:20:45.094Z,22.95
2018-04-17T08:23:13.409Z,19.00
2018-04-17T08:25:42.314Z,23.87
2018-04-17T08:28:11.298Z,21.23
2018-04-17T08:30:40.324Z,21.90
2018-04-17T08:33:08.565Z,22.37
2018-04-17T08:35:36.700Z,23.15
2018-04-17T08:38:04.821Z,25.20
2018-04-17T08:40:33.739Z,22.17
2018-04-17T08:43:02.613Z,21.58
2018-04-17T08:45:30.749Z,24.33
2018-04-17T08:47:58.877Z,23.67
2018-04-17T08:50:27.826Z,21.23
2018-04-17T08:52:56.054Z,25.17
2018-04-17T08:55:24.979Z,25.75
2018-04-17T08:57:53.991Z,25.08
2018-04-17T09:00:22.258Z,28.83
2018-04-17T09:02:50.514Z,27.00
2018-04-17T09:05:19.562Z,25.65
2018-04-17T09:07:47.797Z,25.15
2018-04-17T09:10:15.930Z,28.62
2018-04-17T09:12:44.099Z,29.08
2018-04-17T09:15:12.434Z,27.62
2018-04-17T09:17:41.365Z,30.27
2018-04-17T09:20:09.528Z,27.02
2018-04-17T09:22:37.703Z,28.17
2018-04-17T09:25:05.973Z,29.42
2018-04-17T09:27:34.129Z,29.65
2018-04-17T09:30:02.324Z,30.08
2018-04-17T09:32:30.489Z,26.35
2018-04-17T09:34:59.390Z,27.10
2018-04-17T09:37:28.309Z,25.80
2018-04-17T09:39:56.421Z,26.77
2018-04-17T09:42:24.631Z,28.62
2018-04-17T09:44:52.730Z,28.62
2018-04-17T09:47:20.907Z,29.00
2018-04-17T09:49:49.888Z,28.50
2018-04-17T09:52:18.833Z,30.80
2018-04-17T09:54:47.002Z,29.00
2018-04-17T09:57:15.125Z,31.42
2018-04-17T09:59:44.167Z,30.60
2018-04-17T10:02:12.424Z,26.42
2018-04-17T10:04:41.476Z,30.65
2018-04-17T10:07:09.628Z,26.37
2018-04-17T10:09:37.763Z,30.52
2018-04-17T10:12:06.669Z,28.33
2018-04-17T10:14:35.579Z,30.62
2018-04-17T10:17:03.701Z,29.35
2018-04-17T10:19:31.876Z,33.42
2018-04-17T10:22:00.031Z,27.13
2018-04-17T10:24:28.273Z,32.88
2018-04-17T10:26:56.399Z,27.75
2018-04-17T10:29:24.695Z,26.80
2018-04-17T10:31:52.893Z,27.10
2018-04-17T10:34:21.017Z,29.25
2018-04-17T10:36:49.135Z,27.45
2018-04-17T10:39:17.398Z,29.58
2018-04-17T10:41:45.888Z,32.42
2018-04-17T10:44:14.642Z,32.05
2018-04-17T10:46:43.165Z,29.83
2018-04-17T10:49:11.592Z,32.25
2018-04-17T10:51:40.070Z,36.28
2018-04-17T10:54:09.212Z,30.20
2018-04-17T10:56:39.034Z,29.92
2018-04-17T10:59:12.242Z,33.42
2018-04-17T11:01:40.661Z,31.87
2018-04-17T11:04:09.723Z,27.60
2018-04-17T11:06:38.547Z,26.08
2018-04-17T11:09:07.026Z,30.10
2018-04-17T11:11:35.322Z,28.38
2018-04-17T11:14:04.395Z,26.75
2018-04-17T11:16:33.405Z,27.95
2018-04-17T11:19:02.096Z,25.98
2018-04-17T11:21:31.862Z,25.58
2018-04-17T11:24:03.223Z,31.33
2018-04-17T11:26:32.052Z,30.08
2018-04-17T11:29:00.842Z,30.55
2018-04-17T11:31:29.664Z,33.90
2018-04-17T11:33:59.651Z,30.45
2018-04-17T11:36:28.138Z,33.08
2018-04-17T11:38:58.488Z,36.20
2018-04-17T11:41:27.661Z,28.30
2018-04-17T11:43:57.555Z,33.50
2018-04-17T11:46:26.029Z,30.80
2018-04-17T11:48:55.408Z,32.42
2018-04-17T11:51:24.854Z,34.05
2018-04-17T11:53:53.934Z,31.85
2018-04-17T11:56:23.853Z,30.27
2018-04-17T11:58:53.181Z,31.98
2018-04-17T12:01:22.940Z,29.58
2018-04-17T12:03:52.477Z,30.70
2018-04-17T12:06:20.750Z,33.20
2018-04-17T12:08:51.516Z,32.25
2018-04-17T12:11:21.289Z,31.87
2018-04-17T12:13:50.344Z,29.70
2018-04-17T12:16:20.263Z,29.92
2018-04-17T12:18:49.712Z,30.42
2018-04-17T12:21:18.750Z,32.75
2018-04-17T12:23:47.645Z,30.75
2018-04-17T12:26:15.791Z,28.80
2018-04-17T12:28:44.986Z,31.75
2018-04-17T12:31:14.428Z,29.60
2018-04-17T12:33:43.490Z,29.58
2018-04-17T12:36:11.693Z,29.10
2018-04-17T12:38:40.210Z,27.42
2018-04-17T12:41:08.403Z,30.27
2018-04-17T12:43:37.735Z,28.75
2018-04-17T12:46:05.900Z,29.80
2018-04-17T12:48:34.051Z,32.95
2018-04-17T12:51:02.200Z,28.45
2018-04-17T12:53:30.441Z,31.05
2018-04-17T12:56:00.093Z,29.35
2018-04-17T12:58:28.365Z,33.05
2018-04-17T13:00:57.353Z,30.35
2018-04-17T13:03:26.486Z,31.80
2018-04-17T13:05:54.620Z,30.42
2018-04-17T13:08:23.661Z,32.38
2018-04-17T13:10:52.607Z,28.50
2018-04-17T13:13:20.785Z,33.35
2018-04-17T13:15:48.919Z,28.08
2018-04-17T13:18:17.074Z,29.52
2018-04-17T13:20:45.184Z,28.33
2018-04-17T13:23:13.309Z,28.38
2018-04-17T13:25:42.220Z,28.65
2018-04-17T13:28:11.133Z,28.23
2018-04-17T13:30:39.265Z,30.35
2018-04-17T13:33:07.435Z,29.95
2018-04-17T13:35:35.619Z,29.92
2018-04-17T13:38:04.619Z,29.17
2018-04-17T13:40:33.617Z,28.73
2018-04-17T13:43:01.799Z,30.98
2018-04-17T13:45:29.929Z,29.40
2018-04-17T13:47:58.069Z,29.58
2018-04-17T13:50:26.987Z,28.65
2018-04-17T13:52:55.161Z,25.48
2018-04-17T13:55:23.321Z,28.73
2018-04-17T13:57:52.272Z,28.23
2018-04-17T14:00:20.397Z,30.58
2018-04-17T14:02:49.328Z,25.45
2018-04-17T14:05:17.491Z,25.77
2018-04-17T14:07:45.650Z,24.73
2018-04-17T14:10:14.662Z,24.73
2018-04-17T14:12:42.808Z,26.33
2018-04-17T14:15:11.790Z,26.02
2018-04-17T14:17:40.802Z,27.25
2018-04-17T14:20:09.027Z,25.42
2018-04-17T14:22:37.387Z,28.75
2018-04-17T14:25:05.580Z,28.48
2018-04-17T14:27:33.710Z,25.83
2018-04-17T14:30:01.855Z,26.70
2018-04-17T14:32:30.153Z,25.05
2018-04-17T14:34:58.407Z,24.85
2018-04-17T14:37:26.580Z,30.35
2018-04-17T14:39:54.700Z,26.17
2018-04-17T14:42:23.005Z,27.35
2018-04-17T14:44:52.073Z,29.33
2018-04-17T14:47:20.631Z,28.52
2018-04-17T14:49:48.771Z,27.13
2018-04-17T14:52:17.733Z,27.80
2018-04-17T14:54:45.949Z,32.83
2018-04-17T14:57:15.014Z,26.42
2018-04-17T14:59:43.173Z,26.83
2018-04-17T15:02:11.511Z,25.48
2018-04-17T15:04:40.518Z,28.23
2018-04-17T15:07:09.425Z,24.40
2018-04-17T15:09:37.809Z,25.75
2018-04-17T15:12:05.967Z,27.25
2018-04-17T15:14:34.883Z,24.10
2018-04-17T15:17:03.067Z,27.10
2018-04-17T15:19:31.226Z,24.90
2018-04-17T15:22:00.143Z,25.70
2018-04-17T15:24:28.415Z,26.40
2018-04-17T15:26:56.535Z,23.08
2018-04-17T15:29:25.293Z,27.58
2018-04-17T15:31:53.464Z,26.85
2018-04-17T15:34:21.644Z,28.85
2018-04-17T15:36:52.545Z,24.60
2018-04-17T15:39:22.095Z,27.35
2018-04-17T15:41:50.242Z,24.33
2018-04-17T15:44:19.958Z,22.92
2018-04-17T15:46:48.134Z,22.35
2018-04-17T15:49:17.075Z,24.58
2018-04-17T15:51:45.814Z,19.45
2018-04-17T15:54:15.536Z,18.83
2018-04-17T15:56:44.400Z,19.60
2018-04-17T15:59:12.603Z,20.00
2018-04-17T16:01:41.622Z,23.85
2018-04-17T16:04:09.919Z,19.40
2018-04-17T16:06:38.125Z,24.98
2018-04-17T16:09:06.292Z,21.65
2018-04-17T16:11:34.441Z,21.17
2018-04-17T16:14:02.630Z,22.05
2018-04-17T16:16:31.746Z,20.33
2018-04-17T16:19:00.782Z,22.90
2018-04-17T16:21:30.258Z,22.80
2018-04-17T16:23:59.462Z,20.70
2018-04-17T16:26:28.757Z,21.62
2018-04-17T16:28:58.025Z,22.23
2018-04-17T16:31:26.454Z,23.95
2018-04-17T16:33:54.796Z,22.48
2018-04-17T16:36:23.009Z,26.85
2018-04-17T16:38:51.288Z,22.27
2018-04-17T16:41:19.699Z,22.15
2018-04-17T16:43:48.035Z,25.73
2018-04-17T16:46:16.263Z,24.83
2018-04-17T16:48:45.091Z,24.73
2018-04-17T16:51:14.787Z,26.80
2018-04-17T16:53:43.855Z,25.37
2018-04-17T16:56:13.370Z,26.12
2018-04-17T16:58:42.157Z,24.75
2018-04-17T17:01:10.943Z,21.90
2018-04-17T17:03:39.523Z,25.00
2018-04-17T17:06:08.254Z,26.25
2018-04-17T17:08:38.033Z,23.85
2018-04-17T17:11:06.224Z,24.63
2018-04-17T17:13:35.643Z,21.65
2018-04-17T17:16:04.794Z,23.00
2018-04-17T17:18:33.761Z,22.10
2018-04-17T17:21:03.004Z,20.65
2018-04-17T17:23:31.986Z,23.35
2018-04-17T17:26:00.505Z,21.58
2018-04-17T17:28:28.755Z,22.02
2018-04-17T17:30:57.040Z,21.83
2018-04-17T17:33:25.522Z,21.80
2018-04-17T17:35:54.590Z,20.73
2018-04-17T17:38:24.021Z,20.30
2018-04-17T17:40:53.068Z,20.37
2018-04-17T17:43:21.370Z,18.62
2018-04-17T17:45:49.641Z,20.33
2018-04-17T17:48:17.963Z,19.60
2018-04-17T17:50:46.192Z,20.33
2018-04-17T17:53:14.465Z,17.50
2018-04-17T17:55:42.644Z,19.33
2018-04-17T17:58:10.822Z,20.35
2018-04-17T18:00:39.027Z,19.17
2018-04-17T18:03:07.231Z,16.75
2018-04-17T18:05:36.154Z,19.15
2018-04-17T18:08:04.446Z,17.85
2018-04-17T18:10:32.652Z,19.25
2018-04-17T18:13:01.099Z,18.42
2018-04-17T18:15:29.297Z,21.50
2018-04-17T18:17:57.452Z,22.00
2018-04-17T18:20:25.717Z,18.92
2018-04-17T18:22:54.013Z,19.02
2018-04-17T18:25:23.146Z,17.05
2018-04-17T18:27:51.324Z,19.20
2018-04-17T18:30:19.521Z,18.62
2018-04-17T18:32:49.293Z,17.83
2018-04-17T18:35:17.574Z,17.98
2018-04-17T18:37:45.747Z,19.08
2018-04-17T18:40:13.997Z,18.85
2018-04-17T18:42:42.402Z,18.15
2018-04-17T18:45:10.552Z,16.85
2018-04-17T18:47:38.798Z,16.45
2018-04-17T18:50:07.788Z,17.73
2018-04-17T18:52:36.203Z,18.37
2018-04-17T18:55:04.544Z,19.62
2018-04-17T18:57:32.883Z,17.92
2018-04-17T19:00:01.841Z,19.58
2018-04-17T19:02:30.049Z,19.60
2018-04-17T19:04:59.609Z,18.70
2018-04-17T19:07:27.869Z,18.08
2018-04-17T19:09:56.851Z,19.08
2018-04-17T19:12:25.012Z,15.80
2018-04-17T19:14:53.922Z,19.62
2018-04-17T19:17:22.882Z,18.83
2018-04-17T19:19:51.015Z,16.23
2018-04-17T19:22:19.588Z,17.48
2018-04-17T19:24:47.901Z,15.60
2018-04-17T19:27:16.078Z,17.62
2018-04-17T19:29:44.262Z,17.70
2018-04-17T19:32:13.398Z,18.90
2018-04-17T19:34:42.435Z,18.98
2018-04-17T19:37:10.592Z,18.58
2018-04-17T19:39:38.850Z,16.98
2018-04-17T19:44:42.831Z,19.58
2018-04-17T19:47:11.016Z,19.17
2018-04-17T19:49:39.170Z,20.15
2018-04-17T19:52:08.098Z,17.45
2018-04-17T19:54:36.260Z,19.50
2018-04-17T19:57:04.465Z,18.90
2018-04-17T19:59:32.661Z,17.50
2018-04-17T20:02:00.809Z,19.05
2018-04-17T20:04:28.952Z,17.58
2018-04-17T20:06:57.974Z,18.37
2018-04-17T20:09:26.119Z,16.85
2018-04-17T20:11:54.306Z,19.25
2018-04-17T20:14:23.210Z,17.25
2018-04-17T20:16:51.368Z,18.35
2018-04-17T20:19:20.273Z,17.55
2018-04-17T20:21:49.181Z,19.92
2018-04-17T20:24:17.341Z,17.90
2018-04-17T20:26:46.237Z,19.80
2018-04-17T20:29:15.255Z,16.00
2018-04-17T20:31:43.457Z,17.85
2018-04-17T20:34:11.665Z,20.05
2018-04-17T20:36:39.830Z,22.80
2018-04-17T20:39:07.970Z,20.75
2018-04-17T20:41:36.123Z,16.60
2018-04-17T20:44:05.958Z,18.55
2018-04-17T20:46:34.095Z,18.98
2018-04-17T20:49:02.264Z,17.75
2018-04-17T20:51:30.416Z,20.52
2018-04-17T20:53:58.559Z,18.25
2018-04-17T20:56:27.481Z,18.77
2018-04-17T20:58:55.654Z,18.42
2018-04-17T21:01:23.813Z,21.85
2018-04-17T21:03:52.722Z,18.80
2018-04-17T21:06:20.900Z,17.55
2018-04-17T21:08:49.051Z,18.45
2018-04-17T21:11:17.218Z,19.80
2018-04-17T21:13:45.364Z,21.27
2018-04-17T21:16:13.522Z,18.08
2018-04-17T21:18:41.735Z,19.33
2018-04-17T21:21:09.892Z,19.05
2018-04-17T21:23:38.041Z,21.83
2018-04-17T21:26:06.184Z,18.48
2018-04-17T21:28:34.347Z,17.20
2018-04-17T21:31:02.494Z,19.52
2018-04-17T21:33:30.644Z,20.40
2018-04-17T21:35:59.608Z,20.73
2018-04-17T21:38:27.735Z,18.67
2018-04-17T21:40:55.908Z,17.70
2018-04-17T21:43:24.038Z,18.90
2018-04-17T21:45:52.189Z,18.52
2018-04-17T21:48:20.349Z,18.85
2018-04-17T21:50:48.527Z,21.17
2018-04-17T21:53:16.726Z,18.12
2018-04-17T21:55:44.862Z,18.90
2018-04-17T21:58:13.912Z,18.35
2018-04-17T22:00:42.073Z,18.30
2018-04-17T22:03:10.189Z,17.25
2018-04-17T22:05:39.860Z,17.90
2018-04-17T22:08:08.050Z,17.40
2018-04-17T22:10:36.204Z,20.45
2018-04-17T22:13:04.319Z,18.60
2018-04-17T22:15:32.548Z,18.15
2018-04-17T22:18:00.700Z,21.00
2018-04-17T22:20:30.446Z,18.40
2018-04-17T22:22:58.603Z,22.33
2018-04-17T22:25:26.760Z,19.35
2018-04-17T22:27:54.948Z,21.12
2018-04-17T22:30:23.111Z,19.42
2018-04-17T22:32:51.933Z,20.17
2018-04-17T22:35:20.878Z,19.48
2018-04-17T22:37:49.040Z,18.70
2018-04-17T22:40:17.185Z,19.50
2018-04-17T22:42:45.301Z,19.12
2018-04-17T22:45:13.463Z,19.90
2018-04-17T22:47:41.651Z,19.42
2018-04-17T22:50:09.809Z,18.30
2018-04-17T22:52:38.738Z,18.48
2018-04-17T22:55:06.895Z,19.48
2018-04-17T22:57:35.320Z,20.80
2018-04-17T23:00:03.482Z,17.92
2018-04-17T23:02:31.639Z,20.23
2018-04-17T23:04:59.805Z,20.45
2018-04-17T23:07:28.703Z,18.90
2018-04-17T23:09:56.895Z,18.10
2018-04-17T23:12:25.038Z,18.62
2018-04-17T23:14:53.197Z,18.62
2018-04-17T23:17:21.347Z,19.10
2018-04-17T23:19:49.475Z,21.33
2018-04-17T23:22:18.415Z,21.10
2018-04-17T23:24:46.552Z,20.42
2018-04-17T23:27:15.463Z,18.77
2018-04-17T23:29:43.713Z,19.65
2018-04-17T23:32:12.725Z,19.52
2018-04-17T23:34:41.638Z,21.75
2018-04-17T23:37:09.851Z,23.02
2018-04-17T23:39:38.017Z,20.23
2018-04-17T23:42:06.166Z,17.92
2018-04-17T23:44:34.377Z,19.65
2018-04-17T23:47:02.580Z,18.25
2018-04-17T23:49:30.718Z,20.17
2018-04-17T23:51:58.840Z,20.40
2018-04-17T23:54:26.972Z,23.30
2018-04-17T23:56:55.176Z,21.80
2018-04-17T23:59:23.582Z,20.55
